sensor_id;sensor_type;location;lat;lon;timestamp;P1;durP1;ratioP1;P2;durP2;ratioP2
13997;SDS011;7074;51.508;7.018;2023-04-25T00:00:32;10.90;;;5.83;;
13997;SDS011;7074;51.508;7.018;2023-04-25T00:03:00;7.93;;;5.77;;
13997;SDS011;7074;51.508;7.018;2023-04-25T00:05:27;11.33;;;5.07;;
13997;SDS011;7074;51.508;7.018;2023-04-25T00:07:55;9.87;;;6.50;;
13997;SDS011;7074;51.508;7.018;2023-04-25T00:10:24;6.87;;;5.30;;
13997;SDS011;7074;51.508;7.018;2023-04-25T00:12:51;11.47;;;5.93;;
13997;SDS011;7074;51.508;7.018;2023-04-25T00:15:20;6.87;;;4.80;;
13997;SDS011;7074;51.508;7.018;2023-04-25T00:17:48;9.27;;;5.30;;
13997;SDS011;7074;51.508;7.018;2023-04-25T00:20:18;8.10;;;4.67;;
13997;SDS011;7074;51.508;7.018;2023-04-25T00:22:45;7.50;;;5.30;;
13997;SDS011;7074;51.508;7.018;2023-04-25T00:25:13;6.60;;;5.47;;
13997;SDS011;7074;51.508;7.018;2023-04-25T00:27:41;14.13;;;5.47;;
13997;SDS011;7074;51.508;7.018;2023-04-25T00:30:08;10.80;;;6.10;;
13997;SDS011;7074;51.508;7.018;2023-04-25T00:32:38;8.93;;;5.37;;
13997;SDS011;7074;51.508;7.018;2023-04-25T00:35:05;9.10;;;5.37;;
13997;SDS011;7074;51.508;7.018;2023-04-25T00:37:33;11.57;;;5.20;;
13997;SDS011;7074;51.508;7.018;2023-04-25T00:40:01;12.00;;;6.00;;
13997;SDS011;7074;51.508;7.018;2023-04-25T00:42:31;10.53;;;5.80;;
13997;SDS011;7074;51.508;7.018;2023-04-25T00:44:59;11.07;;;6.07;;
13997;SDS011;7074;51.508;7.018;2023-04-25T00:47:27;7.80;;;5.50;;
13997;SDS011;7074;51.508;7.018;2023-04-25T00:49:56;11.57;;;5.97;;
13997;SDS011;7074;51.508;7.018;2023-04-25T00:52:24;12.17;;;6.13;;
13997;SDS011;7074;51.508;7.018;2023-04-25T00:54:51;12.83;;;6.03;;
13997;SDS011;7074;51.508;7.018;2023-04-25T00:57:19;10.90;;;5.80;;
13997;SDS011;7074;51.508;7.018;2023-04-25T00:59:46;14.67;;;6.47;;
13997;SDS011;7074;51.508;7.018;2023-04-25T01:02:14;9.00;;;6.17;;
13997;SDS011;7074;51.508;7.018;2023-04-25T01:04:41;13.27;;;5.93;;
13997;SDS011;7074;51.508;7.018;2023-04-25T01:07:11;10.23;;;5.87;;
13997;SDS011;7074;51.508;7.018;2023-04-25T01:09:38;9.03;;;6.47;;
13997;SDS011;7074;51.508;7.018;2023-04-25T01:12:06;10.07;;;6.30;;
13997;SDS011;7074;51.508;7.018;2023-04-25T01:14:33;10.97;;;6.80;;
13997;SDS011;7074;51.508;7.018;2023-04-25T01:17:01;10.70;;;6.10;;
13997;SDS011;7074;51.508;7.018;2023-04-25T01:19:28;10.17;;;6.70;;
13997;SDS011;7074;51.508;7.018;2023-04-25T01:21:58;12.13;;;6.20;;
13997;SDS011;7074;51.508;7.018;2023-04-25T01:24:26;10.47;;;6.67;;
13997;SDS011;7074;51.508;7.018;2023-04-25T01:26:55;13.73;;;8.40;;
13997;SDS011;7074;51.508;7.018;2023-04-25T01:29:23;9.50;;;6.40;;
13997;SDS011;7074;51.508;7.018;2023-04-25T01:31:51;12.10;;;6.67;;
13997;SDS011;7074;51.508;7.018;2023-04-25T01:34:19;8.60;;;6.37;;
13997;SDS011;7074;51.508;7.018;2023-04-25T01:36:47;11.73;;;6.50;;
13997;SDS011;7074;51.508;7.018;2023-04-25T01:39:18;12.83;;;6.47;;
13997;SDS011;7074;51.508;7.018;2023-04-25T01:41:46;14.43;;;6.57;;
13997;SDS011;7074;51.508;7.018;2023-04-25T01:44:14;10.03;;;6.47;;
13997;SDS011;7074;51.508;7.018;2023-04-25T01:46:42;10.20;;;6.23;;
13997;SDS011;7074;51.508;7.018;2023-04-25T01:49:10;12.47;;;5.60;;
13997;SDS011;7074;51.508;7.018;2023-04-25T01:51:38;13.20;;;6.40;;
13997;SDS011;7074;51.508;7.018;2023-04-25T01:54:06;8.97;;;5.93;;
13997;SDS011;7074;51.508;7.018;2023-04-25T01:56:37;11.63;;;5.30;;
13997;SDS011;7074;51.508;7.018;2023-04-25T01:59:08;10.73;;;5.90;;
13997;SDS011;7074;51.508;7.018;2023-04-25T02:02:04;9.80;;;6.07;;
13997;SDS011;7074;51.508;7.018;2023-04-25T02:04:34;10.63;;;5.53;;
13997;SDS011;7074;51.508;7.018;2023-04-25T02:07:03;8.50;;;5.90;;
13997;SDS011;7074;51.508;7.018;2023-04-25T02:09:50;12.93;;;6.97;;
13997;SDS011;7074;51.508;7.018;2023-04-25T02:12:20;9.87;;;6.03;;
13997;SDS011;7074;51.508;7.018;2023-04-25T02:15:07;15.87;;;6.30;;
13997;SDS011;7074;51.508;7.018;2023-04-25T02:17:47;11.50;;;5.97;;
13997;SDS011;7074;51.508;7.018;2023-04-25T02:20:15;12.97;;;5.80;;
13997;SDS011;7074;51.508;7.018;2023-04-25T02:22:42;10.77;;;5.70;;
13997;SDS011;7074;51.508;7.018;2023-04-25T02:25:10;8.23;;;6.37;;
13997;SDS011;7074;51.508;7.018;2023-04-25T02:27:39;8.07;;;5.57;;
13997;SDS011;7074;51.508;7.018;2023-04-25T02:30:07;12.40;;;6.03;;
13997;SDS011;7074;51.508;7.018;2023-04-25T02:32:35;13.40;;;5.73;;
13997;SDS011;7074;51.508;7.018;2023-04-25T02:35:03;9.67;;;6.07;;
13997;SDS011;7074;51.508;7.018;2023-04-25T02:37:33;12.57;;;6.50;;
13997;SDS011;7074;51.508;7.018;2023-04-25T02:40:01;11.77;;;5.87;;
13997;SDS011;7074;51.508;7.018;2023-04-25T02:42:30;11.73;;;6.67;;
13997;SDS011;7074;51.508;7.018;2023-04-25T02:45:00;44.63;;;40.00;;
13997;SDS011;7074;51.508;7.018;2023-04-25T02:47:27;730.63;;;504.70;;
13997;SDS011;7074;51.508;7.018;2023-04-25T02:49:55;509.70;;;379.10;;
13997;SDS011;7074;51.508;7.018;2023-04-25T02:52:22;154.50;;;137.50;;
13997;SDS011;7074;51.508;7.018;2023-04-25T02:54:57;48.40;;;36.77;;
13997;SDS011;7074;51.508;7.018;2023-04-25T02:57:26;50.33;;;43.03;;
13997;SDS011;7074;51.508;7.018;2023-04-25T02:59:54;11.23;;;7.30;;
13997;SDS011;7074;51.508;7.018;2023-04-25T03:02:23;11.57;;;5.73;;
13997;SDS011;7074;51.508;7.018;2023-04-25T03:04:50;15.90;;;8.23;;
13997;SDS011;7074;51.508;7.018;2023-04-25T03:07:17;11.10;;;7.13;;
13997;SDS011;7074;51.508;7.018;2023-04-25T03:09:47;12.47;;;6.83;;
13997;SDS011;7074;51.508;7.018;2023-04-25T03:12:15;10.40;;;7.00;;
13997;SDS011;7074;51.508;7.018;2023-04-25T03:14:42;13.20;;;7.10;;
13997;SDS011;7074;51.508;7.018;2023-04-25T03:17:10;13.07;;;6.77;;
13997;SDS011;7074;51.508;7.018;2023-04-25T03:19:39;9.60;;;6.43;;
13997;SDS011;7074;51.508;7.018;2023-04-25T03:22:06;14.30;;;7.77;;
13997;SDS011;7074;51.508;7.018;2023-04-25T03:24:34;12.17;;;7.53;;
13997;SDS011;7074;51.508;7.018;2023-04-25T03:27:02;10.23;;;6.93;;
13997;SDS011;7074;51.508;7.018;2023-04-25T03:29:30;15.23;;;7.90;;
13997;SDS011;7074;51.508;7.018;2023-04-25T03:32:01;11.20;;;6.90;;
13997;SDS011;7074;51.508;7.018;2023-04-25T03:34:28;10.93;;;6.83;;
13997;SDS011;7074;51.508;7.018;2023-04-25T03:36:57;13.60;;;8.37;;
13997;SDS011;7074;51.508;7.018;2023-04-25T03:39:26;11.43;;;6.87;;
13997;SDS011;7074;51.508;7.018;2023-04-25T03:41:56;12.60;;;6.87;;
13997;SDS011;7074;51.508;7.018;2023-04-25T03:44:27;13.97;;;6.93;;
13997;SDS011;7074;51.508;7.018;2023-04-25T03:46:58;14.80;;;7.00;;
13997;SDS011;7074;51.508;7.018;2023-04-25T03:49:25;15.80;;;7.30;;
13997;SDS011;7074;51.508;7.018;2023-04-25T03:52:01;9.20;;;6.20;;
13997;SDS011;7074;51.508;7.018;2023-04-25T03:54:35;16.87;;;6.80;;
13997;SDS011;7074;51.508;7.018;2023-04-25T03:57:15;14.10;;;6.40;;
13997;SDS011;7074;51.508;7.018;2023-04-25T03:59:47;18.37;;;7.30;;
13997;SDS011;7074;51.508;7.018;2023-04-25T04:02:15;12.57;;;6.50;;
13997;SDS011;7074;51.508;7.018;2023-04-25T04:04:44;15.93;;;6.67;;
13997;SDS011;7074;51.508;7.018;2023-04-25T04:07:14;11.60;;;7.07;;
13997;SDS011;7074;51.508;7.018;2023-04-25T04:09:45;15.33;;;8.10;;
13997;SDS011;7074;51.508;7.018;2023-04-25T04:12:19;16.63;;;8.67;;
13997;SDS011;7074;51.508;7.018;2023-04-25T04:14:49;14.53;;;6.20;;
13997;SDS011;7074;51.508;7.018;2023-04-25T04:17:17;13.60;;;6.97;;
13997;SDS011;7074;51.508;7.018;2023-04-25T04:19:45;11.43;;;5.53;;
13997;SDS011;7074;51.508;7.018;2023-04-25T04:22:19;12.57;;;6.13;;
13997;SDS011;7074;51.508;7.018;2023-04-25T04:24:47;11.33;;;5.73;;
13997;SDS011;7074;51.508;7.018;2023-04-25T04:27:21;13.00;;;6.50;;
13997;SDS011;7074;51.508;7.018;2023-04-25T04:30:12;12.60;;;7.10;;
13997;SDS011;7074;51.508;7.018;2023-04-25T04:32:59;11.70;;;7.60;;
13997;SDS011;7074;51.508;7.018;2023-04-25T04:35:30;11.33;;;7.83;;
13997;SDS011;7074;51.508;7.018;2023-04-25T04:38:03;14.27;;;9.03;;
13997;SDS011;7074;51.508;7.018;2023-04-25T04:40:35;16.67;;;10.27;;
13997;SDS011;7074;51.508;7.018;2023-04-25T04:43:11;14.47;;;9.97;;
13997;SDS011;7074;51.508;7.018;2023-04-25T04:45:58;17.30;;;10.57;;
13997;SDS011;7074;51.508;7.018;2023-04-25T04:48:28;12.30;;;10.07;;
13997;SDS011;7074;51.508;7.018;2023-04-25T04:51:20;22.23;;;9.60;;
13997;SDS011;7074;51.508;7.018;2023-04-25T04:54:01;17.50;;;10.87;;
13997;SDS011;7074;51.508;7.018;2023-04-25T04:56:52;19.00;;;8.70;;
13997;SDS011;7074;51.508;7.018;2023-04-25T04:59:34;14.13;;;8.80;;
13997;SDS011;7074;51.508;7.018;2023-04-25T05:02:10;13.90;;;9.67;;
13997;SDS011;7074;51.508;7.018;2023-04-25T05:04:49;16.40;;;8.67;;
13997;SDS011;7074;51.508;7.018;2023-04-25T05:07:43;14.07;;;8.60;;
13997;SDS011;7074;51.508;7.018;2023-04-25T05:10:42;14.57;;;7.90;;
13997;SDS011;7074;51.508;7.018;2023-04-25T05:13:34;15.13;;;8.30;;
13997;SDS011;7074;51.508;7.018;2023-04-25T05:16:12;18.73;;;9.50;;
13997;SDS011;7074;51.508;7.018;2023-04-25T05:18:58;13.83;;;7.40;;
13997;SDS011;7074;51.508;7.018;2023-04-25T05:21:49;17.17;;;7.40;;
13997;SDS011;7074;51.508;7.018;2023-04-25T05:24:42;18.90;;;7.73;;
13997;SDS011;7074;51.508;7.018;2023-04-25T05:27:39;13.80;;;6.70;;
13997;SDS011;7074;51.508;7.018;2023-04-25T05:30:18;21.20;;;7.43;;
13997;SDS011;7074;51.508;7.018;2023-04-25T05:32:59;13.83;;;7.20;;
13997;SDS011;7074;51.508;7.018;2023-04-25T05:35:27;15.43;;;6.90;;
13997;SDS011;7074;51.508;7.018;2023-04-25T05:38:02;15.50;;;7.27;;
13997;SDS011;7074;51.508;7.018;2023-04-25T05:41:05;17.67;;;8.10;;
13997;SDS011;7074;51.508;7.018;2023-04-25T05:43:57;17.70;;;8.27;;
13997;SDS011;7074;51.508;7.018;2023-04-25T05:46:59;21.40;;;7.27;;
13997;SDS011;7074;51.508;7.018;2023-04-25T05:49:43;13.10;;;7.30;;
13997;SDS011;7074;51.508;7.018;2023-04-25T05:52:29;13.80;;;6.90;;
13997;SDS011;7074;51.508;7.018;2023-04-25T05:55:04;15.00;;;7.27;;
13997;SDS011;7074;51.508;7.018;2023-04-25T05:57:33;17.97;;;8.10;;
13997;SDS011;7074;51.508;7.018;2023-04-25T06:00:03;12.03;;;7.17;;
13997;SDS011;7074;51.508;7.018;2023-04-25T06:02:40;16.20;;;6.80;;
13997;SDS011;7074;51.508;7.018;2023-04-25T06:05:10;14.03;;;6.37;;
13997;SDS011;7074;51.508;7.018;2023-04-25T06:07:38;14.80;;;7.23;;
13997;SDS011;7074;51.508;7.018;2023-04-25T06:10:06;13.50;;;7.10;;
13997;SDS011;7074;51.508;7.018;2023-04-25T06:12:34;21.60;;;7.83;;
13997;SDS011;7074;51.508;7.018;2023-04-25T06:15:05;16.20;;;7.50;;
13997;SDS011;7074;51.508;7.018;2023-04-25T06:17:38;14.57;;;6.57;;
13997;SDS011;7074;51.508;7.018;2023-04-25T06:20:14;12.83;;;6.43;;
13997;SDS011;7074;51.508;7.018;2023-04-25T06:22:41;15.23;;;6.87;;
13997;SDS011;7074;51.508;7.018;2023-04-25T06:25:14;12.53;;;7.23;;
13997;SDS011;7074;51.508;7.018;2023-04-25T06:27:42;13.97;;;6.60;;
13997;SDS011;7074;51.508;7.018;2023-04-25T06:30:13;14.93;;;6.53;;
13997;SDS011;7074;51.508;7.018;2023-04-25T06:32:43;14.63;;;6.93;;
13997;SDS011;7074;51.508;7.018;2023-04-25T06:35:11;12.63;;;6.20;;
13997;SDS011;7074;51.508;7.018;2023-04-25T06:37:38;12.80;;;6.07;;
13997;SDS011;7074;51.508;7.018;2023-04-25T06:40:11;12.07;;;6.03;;
13997;SDS011;7074;51.508;7.018;2023-04-25T06:42:39;15.27;;;5.67;;
13997;SDS011;7074;51.508;7.018;2023-04-25T06:45:40;15.07;;;5.63;;
13997;SDS011;7074;51.508;7.018;2023-04-25T06:48:13;12.37;;;5.80;;
13997;SDS011;7074;51.508;7.018;2023-04-25T06:50:58;9.20;;;4.63;;
13997;SDS011;7074;51.508;7.018;2023-04-25T06:53:38;6.40;;;3.43;;
13997;SDS011;7074;51.508;7.018;2023-04-25T06:56:28;9.27;;;3.87;;
13997;SDS011;7074;51.508;7.018;2023-04-25T06:59:13;9.83;;;4.90;;
13997;SDS011;7074;51.508;7.018;2023-04-25T07:02:05;6.73;;;4.00;;
13997;SDS011;7074;51.508;7.018;2023-04-25T07:04:41;6.93;;;4.67;;
13997;SDS011;7074;51.508;7.018;2023-04-25T07:07:17;7.67;;;4.20;;
13997;SDS011;7074;51.508;7.018;2023-04-25T07:09:58;9.90;;;4.53;;
13997;SDS011;7074;51.508;7.018;2023-04-25T07:12:28;9.90;;;5.27;;
13997;SDS011;7074;51.508;7.018;2023-04-25T07:15:24;8.30;;;4.03;;
13997;SDS011;7074;51.508;7.018;2023-04-25T07:21:51;7.53;;;4.30;;
13997;SDS011;7074;51.508;7.018;2023-04-25T07:32:35;10.33;;;4.83;;
13997;SDS011;7074;51.508;7.018;2023-04-25T07:35:56;8.77;;;4.90;;
13997;SDS011;7074;51.508;7.018;2023-04-25T07:38:44;7.07;;;3.93;;
13997;SDS011;7074;51.508;7.018;2023-04-25T07:48:54;5.90;;;3.00;;
13997;SDS011;7074;51.508;7.018;2023-04-25T07:55:57;7.20;;;3.50;;
13997;SDS011;7074;51.508;7.018;2023-04-25T07:59:26;7.63;;;3.60;;
13997;SDS011;7074;51.508;7.018;2023-04-25T08:17:44;7.63;;;3.33;;
13997;SDS011;7074;51.508;7.018;2023-04-25T08:20:14;12.13;;;4.13;;
13997;SDS011;7074;51.508;7.018;2023-04-25T08:22:42;11.07;;;3.77;;
13997;SDS011;7074;51.508;7.018;2023-04-25T08:25:39;10.40;;;4.23;;
13997;SDS011;7074;51.508;7.018;2023-04-25T08:28:08;8.97;;;3.73;;
13997;SDS011;7074;51.508;7.018;2023-04-25T08:30:37;14.90;;;4.77;;
13997;SDS011;7074;51.508;7.018;2023-04-25T08:33:07;11.33;;;4.57;;
13997;SDS011;7074;51.508;7.018;2023-04-25T08:35:50;10.40;;;3.63;;
13997;SDS011;7074;51.508;7.018;2023-04-25T08:38:18;9.93;;;3.87;;
13997;SDS011;7074;51.508;7.018;2023-04-25T08:40:48;10.37;;;4.17;;
13997;SDS011;7074;51.508;7.018;2023-04-25T08:43:17;9.50;;;3.47;;
13997;SDS011;7074;51.508;7.018;2023-04-25T08:45:48;9.60;;;3.50;;
13997;SDS011;7074;51.508;7.018;2023-04-25T08:48:31;9.80;;;4.13;;
13997;SDS011;7074;51.508;7.018;2023-04-25T08:51:01;8.27;;;4.17;;
13997;SDS011;7074;51.508;7.018;2023-04-25T08:53:29;10.57;;;3.70;;
13997;SDS011;7074;51.508;7.018;2023-04-25T08:56:01;8.87;;;3.63;;
13997;SDS011;7074;51.508;7.018;2023-04-25T08:58:33;15.60;;;4.10;;
13997;SDS011;7074;51.508;7.018;2023-04-25T09:01:02;10.77;;;3.87;;
13997;SDS011;7074;51.508;7.018;2023-04-25T09:03:36;9.63;;;3.40;;
13997;SDS011;7074;51.508;7.018;2023-04-25T09:06:03;10.93;;;3.33;;
13997;SDS011;7074;51.508;7.018;2023-04-25T09:08:31;9.57;;;4.00;;
13997;SDS011;7074;51.508;7.018;2023-04-25T09:10:58;11.83;;;3.57;;
13997;SDS011;7074;51.508;7.018;2023-04-25T09:13:26;9.73;;;3.60;;
13997;SDS011;7074;51.508;7.018;2023-04-25T09:16:18;9.77;;;3.67;;
13997;SDS011;7074;51.508;7.018;2023-04-25T09:19:07;7.60;;;3.63;;
13997;SDS011;7074;51.508;7.018;2023-04-25T09:21:35;7.37;;;2.67;;
13997;SDS011;7074;51.508;7.018;2023-04-25T09:24:02;5.77;;;3.23;;
13997;SDS011;7074;51.508;7.018;2023-04-25T09:26:29;6.33;;;3.10;;
13997;SDS011;7074;51.508;7.018;2023-04-25T09:29:04;9.97;;;3.00;;
13997;SDS011;7074;51.508;7.018;2023-04-25T09:31:36;8.80;;;3.40;;
13997;SDS011;7074;51.508;7.018;2023-04-25T09:34:04;5.57;;;2.77;;
13997;SDS011;7074;51.508;7.018;2023-04-25T09:36:41;9.97;;;3.30;;
13997;SDS011;7074;51.508;7.018;2023-04-25T09:39:28;11.97;;;3.70;;
13997;SDS011;7074;51.508;7.018;2023-04-25T09:42:03;5.73;;;2.63;;
13997;SDS011;7074;51.508;7.018;2023-04-25T09:44:31;6.93;;;2.90;;
13997;SDS011;7074;51.508;7.018;2023-04-25T09:47:00;6.73;;;2.50;;
13997;SDS011;7074;51.508;7.018;2023-04-25T09:49:29;6.07;;;2.60;;
13997;SDS011;7074;51.508;7.018;2023-04-25T09:52:06;5.40;;;2.37;;
13997;SDS011;7074;51.508;7.018;2023-04-25T09:54:47;6.13;;;2.20;;
13997;SDS011;7074;51.508;7.018;2023-04-25T09:57:22;6.57;;;2.43;;
13997;SDS011;7074;51.508;7.018;2023-04-25T09:59:54;6.13;;;2.30;;
13997;SDS011;7074;51.508;7.018;2023-04-25T10:02:25;5.37;;;3.13;;
13997;SDS011;7074;51.508;7.018;2023-04-25T10:04:58;6.07;;;2.83;;
13997;SDS011;7074;51.508;7.018;2023-04-25T10:07:34;5.07;;;2.30;;
13997;SDS011;7074;51.508;7.018;2023-04-25T10:10:07;7.57;;;2.97;;
13997;SDS011;7074;51.508;7.018;2023-04-25T10:12:35;3.70;;;2.40;;
13997;SDS011;7074;51.508;7.018;2023-04-25T10:15:05;7.33;;;2.83;;
13997;SDS011;7074;51.508;7.018;2023-04-25T10:17:36;6.23;;;2.80;;
13997;SDS011;7074;51.508;7.018;2023-04-25T10:20:04;5.70;;;2.40;;
13997;SDS011;7074;51.508;7.018;2023-04-25T10:22:36;7.43;;;2.57;;
13997;SDS011;7074;51.508;7.018;2023-04-25T10:25:05;5.93;;;2.53;;
13997;SDS011;7074;51.508;7.018;2023-04-25T10:27:34;6.57;;;2.70;;
13997;SDS011;7074;51.508;7.018;2023-04-25T10:30:02;4.93;;;2.47;;
13997;SDS011;7074;51.508;7.018;2023-04-25T10:32:31;4.63;;;2.60;;
13997;SDS011;7074;51.508;7.018;2023-04-25T10:35:11;5.97;;;2.63;;
13997;SDS011;7074;51.508;7.018;2023-04-25T10:37:59;4.37;;;2.33;;
13997;SDS011;7074;51.508;7.018;2023-04-25T10:40:29;6.27;;;2.30;;
13997;SDS011;7074;51.508;7.018;2023-04-25T10:43:32;9.23;;;3.17;;
13997;SDS011;7074;51.508;7.018;2023-04-25T10:46:12;4.80;;;2.60;;
13997;SDS011;7074;51.508;7.018;2023-04-25T10:48:44;7.70;;;3.10;;
13997;SDS011;7074;51.508;7.018;2023-04-25T10:51:17;6.23;;;2.80;;
13997;SDS011;7074;51.508;7.018;2023-04-25T10:53:46;9.47;;;3.97;;
13997;SDS011;7074;51.508;7.018;2023-04-25T10:56:23;5.80;;;2.50;;
13997;SDS011;7074;51.508;7.018;2023-04-25T10:58:52;5.10;;;2.60;;
13997;SDS011;7074;51.508;7.018;2023-04-25T11:01:35;9.37;;;2.90;;
13997;SDS011;7074;51.508;7.018;2023-04-25T11:04:03;6.17;;;2.57;;
13997;SDS011;7074;51.508;7.018;2023-04-25T11:06:34;7.93;;;3.20;;
13997;SDS011;7074;51.508;7.018;2023-04-25T11:09:10;4.27;;;2.13;;
13997;SDS011;7074;51.508;7.018;2023-04-25T11:11:39;6.67;;;3.17;;
13997;SDS011;7074;51.508;7.018;2023-04-25T11:14:06;7.33;;;3.27;;
13997;SDS011;7074;51.508;7.018;2023-04-25T11:16:33;6.63;;;2.83;;
13997;SDS011;7074;51.508;7.018;2023-04-25T11:19:03;6.37;;;3.30;;
13997;SDS011;7074;51.508;7.018;2023-04-25T11:21:31;6.83;;;3.20;;
13997;SDS011;7074;51.508;7.018;2023-04-25T11:23:59;7.50;;;3.07;;
13997;SDS011;7074;51.508;7.018;2023-04-25T11:26:27;6.13;;;2.53;;
13997;SDS011;7074;51.508;7.018;2023-04-25T11:28:57;3.93;;;2.73;;
13997;SDS011;7074;51.508;7.018;2023-04-25T11:31:25;4.27;;;2.30;;
13997;SDS011;7074;51.508;7.018;2023-04-25T11:33:52;4.97;;;2.37;;
13997;SDS011;7074;51.508;7.018;2023-04-25T11:36:20;7.23;;;2.87;;
13997;SDS011;7074;51.508;7.018;2023-04-25T11:38:48;5.10;;;2.40;;
13997;SDS011;7074;51.508;7.018;2023-04-25T11:41:19;3.63;;;2.30;;
13997;SDS011;7074;51.508;7.018;2023-04-25T11:43:47;2.97;;;2.20;;
13997;SDS011;7074;51.508;7.018;2023-04-25T11:46:16;4.20;;;2.30;;
13997;SDS011;7074;51.508;7.018;2023-04-25T11:48:45;3.70;;;2.20;;
13997;SDS011;7074;51.508;7.018;2023-04-25T11:51:13;6.13;;;2.80;;
13997;SDS011;7074;51.508;7.018;2023-04-25T11:53:40;2.30;;;2.03;;
13997;SDS011;7074;51.508;7.018;2023-04-25T11:56:09;7.00;;;2.10;;
13997;SDS011;7074;51.508;7.018;2023-04-25T12:01:27;4.53;;;2.20;;
13997;SDS011;7074;51.508;7.018;2023-04-25T12:03:55;3.90;;;2.10;;
13997;SDS011;7074;51.508;7.018;2023-04-25T12:06:25;3.97;;;2.63;;
13997;SDS011;7074;51.508;7.018;2023-04-25T12:09:00;7.30;;;2.70;;
13997;SDS011;7074;51.508;7.018;2023-04-25T12:11:29;5.17;;;2.77;;
13997;SDS011;7074;51.508;7.018;2023-04-25T12:14:02;6.17;;;2.90;;
13997;SDS011;7074;51.508;7.018;2023-04-25T12:16:39;9.47;;;2.50;;
13997;SDS011;7074;51.508;7.018;2023-04-25T12:19:07;3.77;;;2.30;;
13997;SDS011;7074;51.508;7.018;2023-04-25T12:21:35;3.63;;;2.53;;
13997;SDS011;7074;51.508;7.018;2023-04-25T12:24:10;5.30;;;3.17;;
13997;SDS011;7074;51.508;7.018;2023-04-25T12:26:46;2.93;;;2.37;;
13997;SDS011;7074;51.508;7.018;2023-04-25T12:29:19;4.43;;;2.63;;
13997;SDS011;7074;51.508;7.018;2023-04-25T12:31:48;4.00;;;2.17;;
13997;SDS011;7074;51.508;7.018;2023-04-25T12:34:16;51.80;;;45.93;;
13997;SDS011;7074;51.508;7.018;2023-04-25T12:36:44;73.40;;;62.97;;
13997;SDS011;7074;51.508;7.018;2023-04-25T12:39:15;5.77;;;3.40;;
13997;SDS011;7074;51.508;7.018;2023-04-25T12:41:42;4.87;;;3.10;;
13997;SDS011;7074;51.508;7.018;2023-04-25T12:44:25;2.73;;;1.80;;
13997;SDS011;7074;51.508;7.018;2023-04-25T12:46:52;5.23;;;2.47;;
13997;SDS011;7074;51.508;7.018;2023-04-25T12:49:20;4.53;;;2.40;;
13997;SDS011;7074;51.508;7.018;2023-04-25T12:51:47;2.83;;;2.33;;
13997;SDS011;7074;51.508;7.018;2023-04-25T12:54:14;8.57;;;2.90;;
13997;SDS011;7074;51.508;7.018;2023-04-25T12:56:42;3.80;;;2.43;;
13997;SDS011;7074;51.508;7.018;2023-04-25T12:59:09;5.27;;;2.97;;
13997;SDS011;7074;51.508;7.018;2023-04-25T13:01:37;4.53;;;2.50;;
13997;SDS011;7074;51.508;7.018;2023-04-25T13:04:05;6.73;;;3.07;;
13997;SDS011;7074;51.508;7.018;2023-04-25T13:06:32;15.80;;;12.00;;
13997;SDS011;7074;51.508;7.018;2023-04-25T13:08:59;22.23;;;17.70;;
13997;SDS011;7074;51.508;7.018;2023-04-25T13:11:26;48.57;;;29.80;;
13997;SDS011;7074;51.508;7.018;2023-04-25T13:13:54;9.93;;;4.73;;
13997;SDS011;7074;51.508;7.018;2023-04-25T13:16:22;5.50;;;3.00;;
13997;SDS011;7074;51.508;7.018;2023-04-25T13:18:50;4.20;;;2.67;;
13997;SDS011;7074;51.508;7.018;2023-04-25T13:21:18;4.30;;;2.50;;
13997;SDS011;7074;51.508;7.018;2023-04-25T13:23:45;5.93;;;2.73;;
13997;SDS011;7074;51.508;7.018;2023-04-25T13:26:12;5.03;;;2.67;;
13997;SDS011;7074;51.508;7.018;2023-04-25T13:28:39;4.43;;;2.20;;
13997;SDS011;7074;51.508;7.018;2023-04-25T13:31:07;5.60;;;2.57;;
13997;SDS011;7074;51.508;7.018;2023-04-25T13:33:34;5.57;;;2.77;;
13997;SDS011;7074;51.508;7.018;2023-04-25T13:36:03;3.57;;;2.40;;
13997;SDS011;7074;51.508;7.018;2023-04-25T13:38:30;28.73;;;25.67;;
13997;SDS011;7074;51.508;7.018;2023-04-25T13:40:57;64.37;;;57.50;;
13997;SDS011;7074;51.508;7.018;2023-04-25T13:43:26;2.93;;;2.30;;
13997;SDS011;7074;51.508;7.018;2023-04-25T13:45:53;4.37;;;2.17;;
13997;SDS011;7074;51.508;7.018;2023-04-25T13:48:20;3.60;;;2.80;;
13997;SDS011;7074;51.508;7.018;2023-04-25T13:50:47;6.63;;;2.23;;
13997;SDS011;7074;51.508;7.018;2023-04-25T13:53:16;3.80;;;2.00;;
13997;SDS011;7074;51.508;7.018;2023-04-25T13:55:43;4.47;;;2.10;;
13997;SDS011;7074;51.508;7.018;2023-04-25T13:58:10;2.20;;;2.00;;
13997;SDS011;7074;51.508;7.018;2023-04-25T14:00:38;3.67;;;1.97;;
13997;SDS011;7074;51.508;7.018;2023-04-25T14:03:08;3.57;;;1.90;;
13997;SDS011;7074;51.508;7.018;2023-04-25T14:05:35;4.70;;;1.90;;
13997;SDS011;7074;51.508;7.018;2023-04-25T14:08:05;4.37;;;1.97;;
13997;SDS011;7074;51.508;7.018;2023-04-25T14:10:34;3.30;;;2.07;;
13997;SDS011;7074;51.508;7.018;2023-04-25T14:13:01;3.40;;;1.80;;
13997;SDS011;7074;51.508;7.018;2023-04-25T14:15:29;4.17;;;2.10;;
13997;SDS011;7074;51.508;7.018;2023-04-25T14:17:59;2.87;;;2.00;;
13997;SDS011;7074;51.508;7.018;2023-04-25T14:20:27;4.87;;;1.60;;
13997;SDS011;7074;51.508;7.018;2023-04-25T14:22:54;1.67;;;1.47;;
13997;SDS011;7074;51.508;7.018;2023-04-25T14:25:23;2.63;;;1.80;;
13997;SDS011;7074;51.508;7.018;2023-04-25T14:27:52;3.20;;;2.00;;
13997;SDS011;7074;51.508;7.018;2023-04-25T14:30:20;2.17;;;1.80;;
13997;SDS011;7074;51.508;7.018;2023-04-25T14:32:48;1.93;;;1.67;;
13997;SDS011;7074;51.508;7.018;2023-04-25T14:35:15;2.70;;;1.53;;
13997;SDS011;7074;51.508;7.018;2023-04-25T14:37:43;3.27;;;1.93;;
13997;SDS011;7074;51.508;7.018;2023-04-25T14:40:10;2.93;;;1.63;;
13997;SDS011;7074;51.508;7.018;2023-04-25T14:42:38;3.10;;;1.90;;
13997;SDS011;7074;51.508;7.018;2023-04-25T14:45:08;3.10;;;1.70;;
13997;SDS011;7074;51.508;7.018;2023-04-25T14:47:36;4.33;;;1.63;;
13997;SDS011;7074;51.508;7.018;2023-04-25T14:50:04;4.10;;;2.50;;
13997;SDS011;7074;51.508;7.018;2023-04-25T14:52:32;3.37;;;1.93;;
13997;SDS011;7074;51.508;7.018;2023-04-25T14:54:59;5.00;;;2.93;;
13997;SDS011;7074;51.508;7.018;2023-04-25T14:57:29;4.67;;;2.33;;
13997;SDS011;7074;51.508;7.018;2023-04-25T14:59:57;5.80;;;2.50;;
13997;SDS011;7074;51.508;7.018;2023-04-25T15:02:25;7.73;;;1.80;;
13997;SDS011;7074;51.508;7.018;2023-04-25T15:04:53;6.23;;;2.20;;
13997;SDS011;7074;51.508;7.018;2023-04-25T15:07:21;4.70;;;2.40;;
13997;SDS011;7074;51.508;7.018;2023-04-25T15:09:49;2.77;;;2.13;;
13997;SDS011;7074;51.508;7.018;2023-04-25T15:12:18;2.47;;;2.27;;
13997;SDS011;7074;51.508;7.018;2023-04-25T15:14:45;3.77;;;2.47;;
13997;SDS011;7074;51.508;7.018;2023-04-25T15:17:12;3.57;;;2.10;;
13997;SDS011;7074;51.508;7.018;2023-04-25T15:19:41;77.53;;;60.43;;
13997;SDS011;7074;51.508;7.018;2023-04-25T15:22:09;47.17;;;41.93;;
13997;SDS011;7074;51.508;7.018;2023-04-25T15:24:36;7.77;;;4.27;;
13997;SDS011;7074;51.508;7.018;2023-04-25T15:27:03;4.80;;;2.50;;
13997;SDS011;7074;51.508;7.018;2023-04-25T15:29:31;5.70;;;2.40;;
13997;SDS011;7074;51.508;7.018;2023-04-25T15:31:58;4.00;;;2.40;;
13997;SDS011;7074;51.508;7.018;2023-04-25T15:34:25;4.30;;;2.40;;
13997;SDS011;7074;51.508;7.018;2023-04-25T15:36:54;7.20;;;2.77;;
13997;SDS011;7074;51.508;7.018;2023-04-25T15:39:22;3.33;;;2.70;;
13997;SDS011;7074;51.508;7.018;2023-04-25T15:41:50;5.87;;;2.63;;
13997;SDS011;7074;51.508;7.018;2023-04-25T15:44:17;5.43;;;2.00;;
13997;SDS011;7074;51.508;7.018;2023-04-25T15:46:44;4.63;;;2.60;;
13997;SDS011;7074;51.508;7.018;2023-04-25T15:49:11;6.17;;;2.67;;
13997;SDS011;7074;51.508;7.018;2023-04-25T15:51:38;5.27;;;2.30;;
13997;SDS011;7074;51.508;7.018;2023-04-25T15:54:07;5.53;;;2.97;;
13997;SDS011;7074;51.508;7.018;2023-04-25T15:56:34;2.80;;;1.83;;
13997;SDS011;7074;51.508;7.018;2023-04-25T15:59:02;7.10;;;2.20;;
13997;SDS011;7074;51.508;7.018;2023-04-25T16:01:29;5.33;;;2.07;;
13997;SDS011;7074;51.508;7.018;2023-04-25T16:03:57;3.93;;;2.20;;
13997;SDS011;7074;51.508;7.018;2023-04-25T16:06:25;5.20;;;2.40;;